5  °C
Temperature
41  °F
Temperature
34  °F
 Dewpoint
1  °C
  Dewpoint
76  %
 Humidity
  Temperature
6  mph
Wind Speed
5  kts
Wind Speed
10  km/h
Wind Speed
2.7  m/s
Wind Speed
20°
North North
East

Wind Speed
Clear
Conditions
Pressure 1031.91 (hPa) - 30.47 (inHG)
Visibility 6.2 (mi) - 10.0 (km)

Sky Conditions
EGTK
Location Oxford (Kidlington) 26 mi (41.83 km)
Metar :EGTK 232220Z 02005KT CAVOK 05/01 Q1032
Sat 23rd March 22:20 pm

Nearest Airport
https://www.checkwx.com/weather/EGTK
  Metar Aviation API Data Provided by https://www.checkwx.com/ Original CSS/SVG/PHP scripts by weather34.com © 2015-2019